Fisty, KY (41743)

12:05 AM EDT on July 30, 2014 (GMT -0400)
KKYJACKS3 Elev 994 ft | 37.41 °N, 83.42 °W | Change Station

Current weather conditions updated 10 seconds ago

Clear
Clear
56.0 °F
Feels Like 56.0 °F
N
0.0
Wind Variable Wind from North
Gusts 0.0 mph

Today is forecast to be Cooler than yesterday.

Today
High -- | Low -- °F
--% Chance of Precip.
Yesterday
High -- | Low -- °F
Precip. -- in
6:35 AM 8:42 PM
Waxing Crescent, 9% visible
Pressure 30.08 in
Visibility 10.0 miles
Clouds Clear
Dew Point 53 °F
Humidity 90%
Rainfall 0.00 in
Snow Depth Not available.
UV 0 out of 12
Pollen 4.00 out of 12
Air Quality Not available.
Flu Activity Not available.
METAR KJKL 300353Z AUTO 00000KT 10SM CLR 16/12 A3010 RMK AO2 SLP185 T01560122

More Conditions Fewer Conditions

Pressure 30.08 in
Visibility 10.0 miles
Clouds Clear
Dew Point 53 °F
Humidity 90%
Rainfall 0.00 in
Snow Depth Not available.
UV 0 out of 12
Pollen 4.00 out of 12
Air Quality Not available.
Flu Activity Not available.
METAR KJKL 300353Z AUTO 00000KT 10SM CLR 16/12 A3010 RMK AO2 SLP185 T01560122

More Conditions Fewer Conditions

10-Day Weather Forecast

Almanac

Astronomy

Jul. 30, 2014 Rise Set
Actual Time 6:35 AM EDT 8:42 PM EDT
Civil Twilight 6:06 AM EDT 9:10 PM EDT
Nautical Twilight 5:30 AM EDT 9:46 PM EDT
Astronomical Twilight 4:52 AM EDT 10:24 PM EDT
Moon 10:00 AM EDT 10:30 PM EDT
Length of Visible Light 15h 04m
Length of Day
14h 06m
Tomorrow will be 1m 45s shorter.
Waxing Crescent, 9% of the Moon is Illuminated
Today
Waxing Crescent
Aug 3
First Quarter
Aug 10
Full
Aug 17
Last Quarter
Aug 25
New

Yesterday's Extremes

State Highs State Lows

Community

WunderPhotos

Upload Photos

1,738,995 photos uploaded!

WunderBlogs® & News

By Dr. Jeff Masters
Director of Meteorology, Weather Underground
By Kari Strenfel
Meteorologist, Weather Underground
By Christopher C. Burt
Weather Historian, Weather Underground
July 29, 2014
July 29, 2014
July 29, 2014

Nearby

Snow Depth

Station Depth Elevation
No new snow has been reported.

Earthquake Activity

City Distance Mag. Time & Date
No recent earthquake activity has been reported nearby.
Minimum magnitude displayed is 2.5.

Coastal Water Temperatures

Place Temperature
No Stations Reporting

Nearby Weather Stations

Station Location Temp. Dew Point Humidity Wind Precip. Elev Updated Type
Talbert, KY 56.0 °F 53 °F 90% North  at  0.0 mph 0.00 in / hr 994 ft 12:05 AM EDT Normal
Middle Creek VFD Station 2, Prestonsburg, KY 56.6 °F 54 °F 92% North  at  0.0 mph - / hr 689 ft 11:57 PM EDT Normal

Show More Stations Show Fewer Stations